createdAt,value
2022-08-21T00:01:40.714Z,89.60
2022-08-21T00:04:08.236Z,89.90
2022-08-21T00:06:36.402Z,89.90
2022-08-21T00:09:06.884Z,90.10
2022-08-21T00:11:35.905Z,90.20
2022-08-21T00:14:03.359Z,90.50
2022-08-21T00:16:30.096Z,90.40
2022-08-21T00:18:56.752Z,90.40
2022-08-21T00:21:23.382Z,90.40
2022-08-21T00:23:50.090Z,90.60
2022-08-21T00:26:16.732Z,90.70
2022-08-21T00:28:43.927Z,90.60
2022-08-21T00:31:10.634Z,90.70
2022-08-21T00:33:37.286Z,90.80
2022-08-21T00:36:04.150Z,90.90
2022-08-21T00:38:31.001Z,90.80
2022-08-21T00:41:10.223Z,90.90
2022-08-21T00:43:48.319Z,90.90
2022-08-21T00:46:14.934Z,91.10
2022-08-21T00:48:41.719Z,91.30
2022-08-21T00:51:23.363Z,91.30
2022-08-21T00:53:55.086Z,91.30
2022-08-21T00:56:22.363Z,91.30
2022-08-21T00:58:50.043Z,91.30
2022-08-21T01:01:21.700Z,91.30
2022-08-21T01:03:48.772Z,91.20
2022-08-21T01:06:16.830Z,91.40
2022-08-21T01:08:46.758Z,91.50
2022-08-21T01:11:15.718Z,91.50
2022-08-21T01:13:46.779Z,91.60
2022-08-21T01:16:17.086Z,91.70
2022-08-21T01:18:45.819Z,91.80
2022-08-21T01:21:20.103Z,91.90
2022-08-21T01:23:50.324Z,92.00
2022-08-21T01:26:19.395Z,92.10
2022-08-21T01:29:13.903Z,92.00
2022-08-21T01:31:41.042Z,92.00
2022-08-21T01:34:07.982Z,92.00
2022-08-21T01:36:35.027Z,91.90
2022-08-21T01:39:03.745Z,91.90
2022-08-21T01:41:30.382Z,92.00
2022-08-21T01:43:57.179Z,92.20
2022-08-21T01:46:23.824Z,92.10
2022-08-21T01:48:50.473Z,92.20
2022-08-21T01:51:17.277Z,92.30
2022-08-21T01:53:43.987Z,92.40
2022-08-21T01:56:15.347Z,93.50
2022-08-21T01:58:44.368Z,92.80
2022-08-21T02:01:11.385Z,92.80
2022-08-21T02:03:38.987Z,92.90
2022-08-21T02:06:07.968Z,92.80
2022-08-21T02:08:35.361Z,92.80
2022-08-21T02:11:02.218Z,92.80
2022-08-21T02:13:29.096Z,92.70
2022-08-21T02:15:55.849Z,92.60
2022-08-21T02:18:22.647Z,93.40
2022-08-21T02:20:55.283Z,92.70
2022-08-21T02:23:26.631Z,92.80
2022-08-21T02:25:56.177Z,93.00
2022-08-21T02:28:22.959Z,93.10
2022-08-21T02:30:50.173Z,93.00
2022-08-21T02:33:17.552Z,92.80
2022-08-21T02:35:46.180Z,92.70
2022-08-21T02:38:20.386Z,92.80
2022-08-21T02:40:51.110Z,92.90
2022-08-21T02:43:20.255Z,93.00
2022-08-21T02:45:48.086Z,92.90
2022-08-21T02:48:19.076Z,93.00
2022-08-21T02:50:48.978Z,93.00
2022-08-21T02:53:17.535Z,92.90
2022-08-21T02:55:49.619Z,92.80
2022-08-21T02:58:24.213Z,92.80
2022-08-21T03:00:52.082Z,92.80
2022-08-21T03:03:18.778Z,92.80
2022-08-21T03:05:45.508Z,92.90
2022-08-21T03:08:14.561Z,92.90
2022-08-21T03:10:44.211Z,92.90
2022-08-21T03:13:11.488Z,92.90
2022-08-21T03:15:38.504Z,92.80
2022-08-21T03:18:06.203Z,92.80
2022-08-21T03:20:34.482Z,93.00
2022-08-21T03:23:02.764Z,93.10
2022-08-21T03:25:39.802Z,93.10
2022-08-21T03:28:13.368Z,93.40
2022-08-21T03:30:42.467Z,93.80
2022-08-21T03:33:09.418Z,93.90
2022-08-21T03:35:39.912Z,93.80
2022-08-21T03:38:06.722Z,93.60
2022-08-21T03:40:33.431Z,93.90
2022-08-21T03:43:00.133Z,94.00
2022-08-21T03:45:26.988Z,93.90
2022-08-21T03:48:01.082Z,93.70
2022-08-21T03:50:35.505Z,93.70
2022-08-21T03:53:08.609Z,93.70
2022-08-21T03:55:44.289Z,93.70
2022-08-21T03:58:16.775Z,94.50
2022-08-21T04:00:46.063Z,93.70
2022-08-21T04:03:12.751Z,93.50
2022-08-21T04:05:40.053Z,93.50
2022-08-21T04:08:07.555Z,93.50
2022-08-21T04:10:36.324Z,93.50
2022-08-21T04:13:03.902Z,93.40
2022-08-21T04:15:30.680Z,93.40
2022-08-21T04:17:57.357Z,93.40
2022-08-21T04:20:24.492Z,93.40
2022-08-21T04:22:51.987Z,93.60
2022-08-21T04:25:20.854Z,93.60
2022-08-21T04:27:47.577Z,93.60
2022-08-21T04:30:15.711Z,93.80
2022-08-21T04:32:47.681Z,93.80
2022-08-21T04:35:18.954Z,93.70
2022-08-21T04:37:45.771Z,93.60
2022-08-21T04:40:14.949Z,93.50
2022-08-21T04:42:50.543Z,93.70
2022-08-21T04:45:24.369Z,93.80
2022-08-21T04:47:53.595Z,93.80
2022-08-21T04:50:23.714Z,93.90
2022-08-21T04:52:50.402Z,94.10
2022-08-21T04:55:18.939Z,94.20
2022-08-21T04:57:48.615Z,94.40
2022-08-21T05:00:19.413Z,94.70
2022-08-21T05:02:48.480Z,94.80
2022-08-21T05:05:16.131Z,95.20
2022-08-21T05:07:44.735Z,95.10
2022-08-21T05:10:12.518Z,95.10
2022-08-21T05:12:42.646Z,95.30
2022-08-21T05:15:12.191Z,95.30
2022-08-21T05:17:41.318Z,95.30
2022-08-21T05:20:09.845Z,95.20
2022-08-21T05:22:36.874Z,95.30
2022-08-21T05:25:10.192Z,95.00
2022-08-21T05:27:39.538Z,94.90
2022-08-21T05:30:10.241Z,94.90
2022-08-21T05:32:37.122Z,94.90
2022-08-21T05:35:06.274Z,94.80
2022-08-21T05:37:33.284Z,94.80
2022-08-21T05:40:04.987Z,94.90
2022-08-21T05:42:56.385Z,94.90
2022-08-21T05:45:41.835Z,94.90
2022-08-21T05:48:14.212Z,94.60
2022-08-21T05:50:41.939Z,94.60
2022-08-21T05:53:10.344Z,94.30
2022-08-21T05:55:42.735Z,93.90
2022-08-21T05:58:12.550Z,93.60
2022-08-21T06:00:39.387Z,93.80
2022-08-21T06:03:12.164Z,93.60
2022-08-21T06:05:38.799Z,93.70
2022-08-21T06:08:05.711Z,93.30
2022-08-21T06:10:32.613Z,91.70
2022-08-21T06:12:59.449Z,90.50
2022-08-21T06:15:26.425Z,90.20
2022-08-21T06:17:54.586Z,90.50
2022-08-21T06:20:21.559Z,89.30
2022-08-21T06:22:48.302Z,88.70
2022-08-21T06:25:14.955Z,85.50
2022-08-21T06:27:41.778Z,85.90
2022-08-21T06:30:09.179Z,85.20
2022-08-21T06:32:36.220Z,84.90
2022-08-21T06:35:04.167Z,85.20
2022-08-21T06:37:30.971Z,85.30
2022-08-21T06:39:57.683Z,85.40
2022-08-21T06:42:27.954Z,84.80
2022-08-21T06:44:55.182Z,84.10
2022-08-21T06:47:21.855Z,82.60
2022-08-21T06:49:48.472Z,80.10
2022-08-21T06:52:16.518Z,79.90
2022-08-21T06:54:43.334Z,80.40
2022-08-21T06:57:10.342Z,76.60
2022-08-21T06:59:37.040Z,78.00
2022-08-21T07:02:03.946Z,77.20
2022-08-21T07:04:30.925Z,74.60
2022-08-21T07:06:57.602Z,73.50
2022-08-21T07:09:24.956Z,75.10
2022-08-21T07:11:54.707Z,72.50
2022-08-21T07:14:22.209Z,70.70
2022-08-21T07:16:50.225Z,71.30
2022-08-21T07:19:16.937Z,70.80
2022-08-21T07:21:43.857Z,71.80
2022-08-21T07:24:11.235Z,69.30
2022-08-21T07:26:38.082Z,69.40
2022-08-21T07:29:05.204Z,67.10
2022-08-21T07:31:32.545Z,64.40
2022-08-21T07:33:59.185Z,63.10
2022-08-21T07:36:25.944Z,63.00
2022-08-21T07:38:53.164Z,63.90
2022-08-21T07:41:26.556Z,61.50
2022-08-21T07:43:53.427Z,60.40
2022-08-21T07:46:20.533Z,58.40
2022-08-21T07:48:47.268Z,54.60
2022-08-21T07:51:15.908Z,49.40
2022-08-21T07:53:42.645Z,47.60
2022-08-21T07:56:09.669Z,47.40
2022-08-21T07:58:36.383Z,49.30
2022-08-21T08:01:03.214Z,44.40
2022-08-21T08:03:29.898Z,45.80
2022-08-21T08:05:57.734Z,42.30
2022-08-21T08:08:24.657Z,41.70
2022-08-21T08:10:51.597Z,40.10
2022-08-21T08:13:18.476Z,40.20
2022-08-21T08:15:45.083Z,38.70
2022-08-21T08:18:11.955Z,37.70
2022-08-21T08:20:38.627Z,36.60
2022-08-21T08:23:05.289Z,34.70
2022-08-21T08:25:36.639Z,34.00
2022-08-21T08:28:16.687Z,33.10
2022-08-21T08:30:45.741Z,31.90
2022-08-21T08:33:12.490Z,30.50
2022-08-21T08:35:41.035Z,30.80
2022-08-21T08:38:07.673Z,29.20
2022-08-21T08:40:43.169Z,30.00
2022-08-21T08:43:10.908Z,31.90
2022-08-21T08:45:49.062Z,30.00
2022-08-21T08:48:38.875Z,29.90
2022-08-21T08:51:10.518Z,30.80
2022-08-21T08:53:58.390Z,29.90
2022-08-21T08:56:30.758Z,30.30
2022-08-21T08:59:08.772Z,31.80
2022-08-21T09:01:38.937Z,30.90
2022-08-21T09:04:06.840Z,29.40
2022-08-21T09:06:52.988Z,29.90
2022-08-21T09:10:11.212Z,28.00
2022-08-21T09:12:59.460Z,25.90
2022-08-21T09:15:47.780Z,28.20
2022-08-21T09:18:54.764Z,28.80
2022-08-21T09:22:02.214Z,32.40
2022-08-21T09:25:18.173Z,32.40
2022-08-21T09:27:44.951Z,32.80
2022-08-21T09:30:12.684Z,33.10
2022-08-21T09:32:40.236Z,35.00
2022-08-21T09:35:09.983Z,36.90
2022-08-21T09:38:01.886Z,34.50
2022-08-21T09:40:36.612Z,30.30
2022-08-21T09:43:05.290Z,29.00
2022-08-21T09:45:34.514Z,28.90
2022-08-21T09:48:26.471Z,28.20
2022-08-21T09:51:09.714Z,26.10
2022-08-21T09:53:43.934Z,25.50
2022-08-21T09:56:45.379Z,23.20
2022-08-21T09:59:36.348Z,22.80
2022-08-21T10:02:18.643Z,22.50
2022-08-21T10:04:52.164Z,20.00
2022-08-21T10:07:22.658Z,22.60
2022-08-21T10:10:01.113Z,20.30
2022-08-21T10:12:55.766Z,19.70
2022-08-21T10:15:48.307Z,21.10
2022-08-21T10:18:33.977Z,21.30
2022-08-21T10:21:29.411Z,19.20
2022-08-21T10:24:06.047Z,20.00
2022-08-21T10:27:08.076Z,19.70
2022-08-21T10:30:07.166Z,19.80
2022-08-21T10:33:09.156Z,20.50
2022-08-21T10:35:52.402Z,22.80
2022-08-21T10:38:58.741Z,23.20
2022-08-21T10:41:42.344Z,23.80
2022-08-21T10:44:15.351Z,22.20
2022-08-21T10:47:09.630Z,23.40
2022-08-21T10:50:18.727Z,20.20
2022-08-21T10:53:16.327Z,21.00
2022-08-21T10:55:57.485Z,21.70
2022-08-21T10:58:31.351Z,18.90
2022-08-21T11:01:07.401Z,18.10
2022-08-21T11:03:40.751Z,17.50
2022-08-21T11:06:17.509Z,16.40
2022-08-21T11:09:15.529Z,15.20
2022-08-21T11:12:12.410Z,15.70
2022-08-21T11:15:02.005Z,16.50
2022-08-21T11:17:38.018Z,15.60
2022-08-21T11:20:13.460Z,17.70
2022-08-21T11:22:55.577Z,16.50
2022-08-21T11:25:37.124Z,16.00
2022-08-21T11:28:14.628Z,15.20
2022-08-21T11:30:50.633Z,16.40
2022-08-21T11:33:42.664Z,15.10
2022-08-21T11:36:33.043Z,13.40
2022-08-21T11:39:25.515Z,13.70
2022-08-21T11:42:27.830Z,14.70
2022-08-21T11:45:28.838Z,13.20
2022-08-21T11:48:16.947Z,15.10
2022-08-21T11:50:45.979Z,12.90
2022-08-21T11:53:22.898Z,12.80
2022-08-21T11:56:01.303Z,13.80
2022-08-21T11:58:32.172Z,13.80
2022-08-21T12:01:07.606Z,13.10
2022-08-21T12:03:42.818Z,12.50
2022-08-21T12:06:12.646Z,13.50
2022-08-21T12:08:42.743Z,12.90
2022-08-21T12:11:18.378Z,13.40
2022-08-21T12:13:59.681Z,14.80
2022-08-21T12:16:41.279Z,14.70
2022-08-21T12:19:12.394Z,14.00
2022-08-21T12:22:10.213Z,13.60
2022-08-21T12:24:41.375Z,13.80
2022-08-21T12:27:31.190Z,12.40
2022-08-21T12:30:10.570Z,12.20
2022-08-21T12:32:43.642Z,11.40
2022-08-21T12:35:24.571Z,11.90
2022-08-21T12:38:28.992Z,13.60
2022-08-21T12:41:12.073Z,12.70
2022-08-21T12:43:58.377Z,13.30
2022-08-21T12:46:38.207Z,11.80
2022-08-21T12:49:14.650Z,12.50
2022-08-21T12:51:57.051Z,12.50
2022-08-21T12:54:30.363Z,10.70
2022-08-21T12:57:02.981Z,10.20
2022-08-21T12:59:30.743Z,10.50
2022-08-21T13:02:01.661Z,11.40
2022-08-21T13:04:42.134Z,10.20
2022-08-21T13:07:15.144Z,10.90
2022-08-21T13:09:48.598Z,11.30
2022-08-21T13:12:17.279Z,11.60
2022-08-21T13:14:47.601Z,11.80
2022-08-21T13:17:25.922Z,10.30
2022-08-21T13:20:11.277Z,11.00
2022-08-21T13:22:44.812Z,10.50
2022-08-21T13:25:18.051Z,10.20
2022-08-21T13:27:57.399Z,9.80
2022-08-21T13:30:24.517Z,10.90
2022-08-21T13:32:53.418Z,11.20
2022-08-21T13:35:23.186Z,10.20
2022-08-21T13:37:52.793Z,10.80
2022-08-21T13:40:41.185Z,9.80
2022-08-21T13:43:14.327Z,7.90
2022-08-21T13:45:53.146Z,10.10
2022-08-21T13:48:22.393Z,9.60
2022-08-21T13:50:49.271Z,8.90
2022-08-21T13:53:34.469Z,8.00
2022-08-21T13:56:03.339Z,8.70
2022-08-21T13:58:42.521Z,8.80
2022-08-21T14:01:20.626Z,9.50
2022-08-21T14:03:49.906Z,8.00
2022-08-21T14:06:21.512Z,7.70
2022-08-21T14:08:53.839Z,8.20
2022-08-21T14:11:21.566Z,7.40
2022-08-21T14:14:02.252Z,7.20
2022-08-21T14:16:46.249Z,8.20
2022-08-21T14:19:25.794Z,8.30
2022-08-21T14:21:52.675Z,7.90
2022-08-21T14:24:30.638Z,6.60
2022-08-21T14:27:04.770Z,7.60
2022-08-21T14:29:37.615Z,7.50
2022-08-21T14:32:21.771Z,7.00
2022-08-21T14:34:51.637Z,8.20
2022-08-21T14:37:18.838Z,8.40
2022-08-21T14:39:46.474Z,8.10
2022-08-21T14:42:13.835Z,6.90
2022-08-21T14:44:40.508Z,7.10
2022-08-21T14:47:07.583Z,6.70
2022-08-21T14:49:34.310Z,7.00
2022-08-21T14:52:01.002Z,7.30
2022-08-21T14:54:30.960Z,7.80
2022-08-21T14:57:09.580Z,8.10
2022-08-21T14:59:40.137Z,8.00
2022-08-21T15:02:10.040Z,7.50
2022-08-21T15:04:36.883Z,8.20
2022-08-21T15:07:03.867Z,8.60
2022-08-21T15:09:30.563Z,7.80
2022-08-21T15:11:59.524Z,8.20
2022-08-21T15:14:29.575Z,9.30
2022-08-21T15:16:56.931Z,9.30
2022-08-21T15:19:23.639Z,9.60
2022-08-21T15:21:50.481Z,10.80
2022-08-21T15:24:17.472Z,9.20
2022-08-21T15:26:45.088Z,10.00
2022-08-21T15:29:11.927Z,10.00
2022-08-21T15:31:55.252Z,10.30
2022-08-21T15:34:23.336Z,10.40
2022-08-21T15:36:56.233Z,10.60
2022-08-21T15:39:25.094Z,10.50
2022-08-21T15:41:57.587Z,10.30
2022-08-21T15:44:26.200Z,11.10
2022-08-21T15:46:52.842Z,10.60
2022-08-21T15:49:19.621Z,10.70
2022-08-21T15:51:46.395Z,10.70
2022-08-21T15:54:13.079Z,11.20
2022-08-21T15:56:41.892Z,11.30
2022-08-21T15:59:14.245Z,12.40
2022-08-21T16:01:44.606Z,11.60
2022-08-21T16:04:19.393Z,11.70
2022-08-21T16:06:54.406Z,10.80
2022-08-21T16:09:24.083Z,11.10
2022-08-21T16:11:51.634Z,11.40
2022-08-21T16:14:18.468Z,12.20
2022-08-21T16:16:45.518Z,12.30
2022-08-21T16:19:13.559Z,13.40
2022-08-21T16:21:40.245Z,12.70
2022-08-21T16:24:07.143Z,12.90
2022-08-21T16:26:34.195Z,13.70
2022-08-21T16:29:02.976Z,13.90
2022-08-21T16:31:31.693Z,13.90
2022-08-21T16:33:58.720Z,13.70
2022-08-21T16:36:26.592Z,13.10
2022-08-21T16:38:55.451Z,14.20
2022-08-21T16:41:23.951Z,13.60
2022-08-21T16:43:52.335Z,13.90
2022-08-21T16:46:20.508Z,13.80
2022-08-21T16:48:47.386Z,13.70
2022-08-21T16:51:16.018Z,14.60
2022-08-21T16:53:43.683Z,14.90
2022-08-21T16:56:13.297Z,15.40
2022-08-21T16:58:42.510Z,15.30
2022-08-21T17:01:12.101Z,14.80
2022-08-21T17:03:43.574Z,15.20
2022-08-21T17:06:10.631Z,15.60
2022-08-21T17:08:38.143Z,15.60
2022-08-21T17:11:29.304Z,15.90
2022-08-21T17:14:07.703Z,16.20
2022-08-21T17:16:34.750Z,16.10
2022-08-21T17:19:01.383Z,16.40
2022-08-21T17:21:28.151Z,16.70
2022-08-21T17:23:54.828Z,17.50
2022-08-21T17:26:21.487Z,17.60
2022-08-21T17:28:50.070Z,17.80
2022-08-21T17:31:19.861Z,18.50
2022-08-21T17:33:52.840Z,18.90
2022-08-21T17:36:21.135Z,19.80
2022-08-21T17:38:48.348Z,19.70
2022-08-21T17:41:16.095Z,20.00
2022-08-21T17:43:44.067Z,20.10
2022-08-21T17:46:14.948Z,21.20
2022-08-21T17:48:41.595Z,21.00
2022-08-21T17:51:14.595Z,20.60
2022-08-21T17:53:41.780Z,21.20
2022-08-21T17:56:09.394Z,21.80
2022-08-21T17:58:37.036Z,22.00
2022-08-21T18:01:05.688Z,22.30
2022-08-21T18:03:37.097Z,22.90
2022-08-21T18:06:05.558Z,22.80
2022-08-21T18:08:32.681Z,22.30
2022-08-21T18:11:00.161Z,21.90
2022-08-21T18:13:31.064Z,21.70
2022-08-21T18:16:00.163Z,22.90
2022-08-21T18:18:32.691Z,23.40
2022-08-21T18:20:59.343Z,22.90
2022-08-21T18:23:43.252Z,23.30
2022-08-21T18:26:11.047Z,23.70
2022-08-21T18:28:38.486Z,24.30
2022-08-21T18:31:07.414Z,24.50
2022-08-21T18:33:34.295Z,24.70
2022-08-21T18:36:00.990Z,25.60
2022-08-21T18:38:31.350Z,25.50
2022-08-21T18:40:59.672Z,26.30
2022-08-21T18:43:27.025Z,26.70
2022-08-21T18:45:54.084Z,27.40
2022-08-21T18:48:20.975Z,28.10
2022-08-21T18:50:53.579Z,29.50
2022-08-21T18:53:24.054Z,29.50
2022-08-21T18:55:55.039Z,30.30
2022-08-21T18:58:25.455Z,30.40
2022-08-21T19:00:54.194Z,31.10
2022-08-21T19:06:11.949Z,31.80
2022-08-21T19:08:38.851Z,32.40
2022-08-21T19:11:06.447Z,32.70
2022-08-21T19:13:33.875Z,32.30
2022-08-21T19:16:03.842Z,32.20
2022-08-21T19:18:35.378Z,32.40
2022-08-21T19:21:16.182Z,32.50
2022-08-21T19:23:53.227Z,32.70
2022-08-21T19:27:15.256Z,32.60
2022-08-21T19:29:55.958Z,33.50
2022-08-21T19:32:23.036Z,33.60
2022-08-21T19:34:49.935Z,34.10
2022-08-21T19:37:20.340Z,34.80
2022-08-21T19:39:50.318Z,35.50
2022-08-21T19:42:21.216Z,36.10
2022-08-21T19:44:50.927Z,36.40
2022-08-21T19:47:21.160Z,37.50
2022-08-21T19:49:54.009Z,38.00
2022-08-21T19:52:22.713Z,37.80
2022-08-21T19:54:51.787Z,38.10
2022-08-21T19:57:18.667Z,38.70
2022-08-21T19:59:46.372Z,39.40
2022-08-21T20:02:17.424Z,39.90
2022-08-21T20:04:53.320Z,39.40
2022-08-21T20:07:26.427Z,39.30
2022-08-21T20:09:54.515Z,39.90
2022-08-21T20:12:23.162Z,40.00
2022-08-21T20:14:50.675Z,41.00
2022-08-21T20:17:19.289Z,41.10
2022-08-21T20:19:55.383Z,40.90
2022-08-21T20:22:24.145Z,41.60
2022-08-21T20:24:51.500Z,41.60
2022-08-21T20:27:25.374Z,41.50
2022-08-21T20:29:52.680Z,41.50
2022-08-21T20:32:19.356Z,41.50
2022-08-21T20:34:51.766Z,42.00
2022-08-21T20:37:36.001Z,42.30
2022-08-21T20:40:10.360Z,43.20
2022-08-21T20:42:40.536Z,42.60
2022-08-21T20:45:08.626Z,42.80
2022-08-21T20:47:37.652Z,43.10
2022-08-21T20:53:02.091Z,42.70
2022-08-21T20:55:31.935Z,42.50
2022-08-21T20:58:07.452Z,42.50
2022-08-21T21:00:40.070Z,42.40
2022-08-21T21:03:16.879Z,42.20
2022-08-21T21:05:46.614Z,42.40
2022-08-21T21:08:25.762Z,41.80
2022-08-21T21:11:00.808Z,42.30
2022-08-21T21:13:43.943Z,42.80
2022-08-21T21:16:40.662Z,42.00
2022-08-21T21:19:20.895Z,41.90
2022-08-21T21:21:54.285Z,41.90
2022-08-21T21:24:27.679Z,42.70
2022-08-21T21:27:22.805Z,42.30
2022-08-21T21:30:12.276Z,41.80
2022-08-21T21:32:41.174Z,41.60
2022-08-21T21:35:12.272Z,42.80
2022-08-21T21:37:59.779Z,42.30
2022-08-21T21:40:54.361Z,42.50
2022-08-21T21:43:38.958Z,43.30
2022-08-21T21:46:05.537Z,43.20
2022-08-21T21:48:54.993Z,43.50
2022-08-21T21:51:40.249Z,44.00
2022-08-21T21:54:34.560Z,44.60
2022-08-21T21:57:38.481Z,45.40
2022-08-21T22:00:15.609Z,46.60
2022-08-21T22:03:14.959Z,47.40
2022-08-21T22:05:49.305Z,48.50
2022-08-21T22:08:32.357Z,49.10
2022-08-21T22:11:34.448Z,49.80
2022-08-21T22:14:22.638Z,51.30
2022-08-21T22:16:50.700Z,52.00
2022-08-21T22:19:34.707Z,52.40
2022-08-21T22:22:11.758Z,53.00
2022-08-21T22:24:42.668Z,53.30
2022-08-21T22:27:17.045Z,53.70
2022-08-21T22:29:50.765Z,53.80
2022-08-21T22:32:25.707Z,54.20
2022-08-21T22:35:13.508Z,54.50
2022-08-21T22:37:44.689Z,55.00
2022-08-21T22:40:15.833Z,55.30
2022-08-21T22:42:42.846Z,55.90
2022-08-21T22:45:12.268Z,56.70
2022-08-21T22:47:45.983Z,57.40
2022-08-21T22:50:26.063Z,57.90
2022-08-21T22:52:58.007Z,58.70
2022-08-21T22:55:53.362Z,59.30
2022-08-21T22:58:27.548Z,61.00
2022-08-21T23:01:20.516Z,60.70
2022-08-21T23:03:51.667Z,60.70
2022-08-21T23:06:23.066Z,61.50
2022-08-21T23:08:50.132Z,61.60
2022-08-21T23:11:20.989Z,62.70
2022-08-21T23:13:52.634Z,62.70
2022-08-21T23:16:47.117Z,63.20
2022-08-21T23:19:42.851Z,63.70
2022-08-21T23:22:19.441Z,64.00
2022-08-21T23:25:04.975Z,64.40
2022-08-21T23:27:39.061Z,64.70
2022-08-21T23:30:12.299Z,65.00
2022-08-21T23:36:21.121Z,65.80
2022-08-21T23:39:05.216Z,66.00
2022-08-21T23:41:55.848Z,65.60
2022-08-21T23:44:41.996Z,65.40
2022-08-21T23:47:32.225Z,65.20
2022-08-21T23:53:09.443Z,65.50
2022-08-21T23:56:14.836Z,66.70
2022-08-21T23:59:20.169Z,67.00
